Time;durP1;ratioP1;P1;durP2;ratioP2;P2;SDS_P1;SDS_P2;PMS_P1;PMS_P2;Temp;Humidity;BMP_temperature;BMP_pressure;BME280_temperature;BME280_humidity;BME280_pressure;Samples;Min_cycle;Max_cycle;Signal;HPM_P1;HPM_P2
2021/01/01 00:00:58;;;;;;;;;;;;;;;;;;5069661;28;9508;-49
2021/01/01 00:03:24;;;;;;;;;;;;;;;;;;5070066;28;15498;-53
2021/01/01 00:05:49;;;;;;;;;;;;;;;;;;5070820;28;3943;-54
2021/01/01 00:08:15;;;;;;;;;;;;;;;;;;5067109;28;11653;-52
2021/01/01 00:10:40;;;;;;;;;;;;;;;;;;5068060;28;12905;-53
2021/01/01 00:13:05;;;;;;;;;;;;;;;;;;5069168;28;12036;-55
2021/01/01 00:15:31;;;;;;;;;;;;;;;;;;5066419;28;12806;-49
2021/01/01 00:17:56;;;;;;;;;;;;;;;;;;5062259;28;4232;-54
2021/01/01 00:20:21;;;;;;;;;;;;;;;;;;5067114;28;11559;-54
2021/01/01 00:22:46;;;;;;;;;;;;;;;;;;5052096;28;13968;-51
2021/01/01 00:25:12;;;;;;;;;;;;;;;;;;5069668;28;7585;-54
2021/01/01 00:27:37;;;;;;;;;;;;;;;;;;5067877;28;14272;-51
2021/01/01 00:30:04;;;;;;;;;;;;;;;;;;5070914;28;4237;-51
2021/01/01 00:32:29;;;;;;;;;;;;;;;;;;5064438;28;13584;-48
2021/01/01 00:34:55;;;;;;;;;;;;;;;;;;5063500;28;12952;-54
2021/01/01 00:37:20;;;;;;;;;;;;;;;;;;5072693;28;14836;-51
2021/01/01 00:39:45;;;;;;;;;;;;;;;;;;5067949;28;12809;-53
2021/01/01 00:42:11;;;;;;;;;;;;;;;;;;5045287;28;14946;-51
2021/01/01 00:44:36;;;;;;;;;;;;;;;;;;5064047;28;9103;-50
2021/01/01 00:47:02;;;;;;;;;;;;;;;;;;5063084;28;9945;-51
2021/01/01 00:49:27;;;;;;;;;;;;;;;;;;5059725;28;15823;-53
2021/01/01 00:51:52;;;;;;;;;;;;;;;;;;5065217;28;11421;-54
2021/01/01 00:54:18;;;;;;;;;;;;;;;;;;5066243;28;14328;-54
2021/01/01 00:56:43;;;;;;;;;;;;;;;;;;5062446;28;6913;-50
2021/01/01 00:59:08;;;;;;;;;;;;;;;;;;5063243;28;9975;-53
2021/01/01 01:01:34;;;;;;;;;;;;;;;;;;5072758;28;8811;-50
2021/01/01 01:03:59;;;;;;;;;;;;;;;;;;5059849;28;9428;-54
2021/01/01 01:06:25;;;;;;;;;;;;;;;;;;5062402;28;14400;-51
2021/01/01 01:08:51;;;;;;;;;;;;;;;;;;5068007;28;4159;-52
2021/01/01 01:11:21;;;;;;;;;;;;;;;;;;5059688;28;13377;-52
2021/01/01 01:13:46;;;;;;;;;;;;;;;;;;5068316;28;9405;-53
2021/01/01 01:16:11;;;;;;;;;;;;;;;;;;5060795;28;15127;-56
2021/01/01 01:18:37;;;;;;;;;;;;;;;;;;5045849;28;13884;-50
2021/01/01 01:21:02;;;;;;;;;;;;;;;;;;5062399;28;4209;-55
2021/01/01 01:23:27;;;;;;;;;;;;;;;;;;5063165;28;15642;-55
2021/01/01 01:25:53;;;;;;;;;;;;;;;;;;5060743;28;14518;-51
2021/01/01 01:28:18;;;;;;;;;;;;;;;;;;5059684;28;15575;-53
2021/01/01 01:30:43;;;;;;;;;;;;;;;;;;5067822;28;12843;-52
2021/01/01 01:33:09;;;;;;;;;;;;;;;;;;5070493;28;1140;-50
2021/01/01 01:35:37;;;;;;;;;;;;;;;;;;5067803;28;7121;-52
2021/01/01 01:38:03;;;;;;;;;;;;;;;;;;5075017;28;13897;-52
2021/01/01 01:40:28;;;;;;;;;;;;;;;;;;5067498;28;13995;-51
2021/01/01 01:42:54;;;;;;;;;;;;;;;;;;5062224;28;13091;-49
2021/01/01 01:45:19;;;;;;;;;;;;;;;;;;5059615;28;16014;-49
2021/01/01 01:47:46;;;;;;;;;;;;;;;;;;5068229;28;10452;-49
2021/01/01 01:50:11;;;;;;;;;;;;;;;;;;5064198;28;11617;-55
2021/01/01 01:52:37;;;;;;;;;;;;;;;;;;5065384;28;11509;-51
2021/01/01 01:55:02;;;;;;;;;;;;;;;;;;5066756;28;10013;-51
2021/01/01 01:57:28;;;;;;;;;;;;;;;;;;5066303;28;16590;-52
2021/01/01 01:59:55;;;;;;;;;;;;;;;;;;5058306;28;4165;-55
2021/01/01 02:02:22;;;;;;;;;;;;;;;;;;5065549;28;10045;-53
2021/01/01 02:04:47;;;;;;;;;;;;;;;;;;5046929;28;14104;-52
2021/01/01 02:07:12;;;;;;;;;;;;;;;;;;5064148;28;14100;-51
2021/01/01 02:09:38;;;;;;;;;;;;;;;;;;5068324;28;11280;-52
2021/01/01 02:12:03;;;;;;;;;;;;;;;;;;5067118;28;4186;-51
2021/01/01 02:14:29;;;;;;;;;;;;;;;;;;5060720;28;14204;-50
2021/01/01 02:16:54;;;;;;;;;;;;;;;;;;5065753;28;10313;-49
2021/01/01 02:19:20;;;;;;;;;;;;;;;;;;5066787;28;8312;-51
2021/01/01 02:21:47;;;;;;;;;;;;;;;;;;5066234;28;9723;-49
2021/01/01 02:24:12;;;;;;;;;;;;;;;;;;5065549;28;14013;-48
2021/01/01 02:26:38;;;;;;;;;;;;;;;;;;5065824;28;9411;-52
2021/01/01 02:29:03;;;;;;;;;;;;;;;;;;5066578;28;14269;-53
2021/01/01 02:31:29;;;;;;;;;;;;;;;;;;5059105;28;14091;-51
2021/01/01 02:33:54;;;;;;;;;;;;;;;;;;5062493;28;12595;-54
2021/01/01 02:36:20;;;;;;;;;;;;;;;;;;5060353;28;14982;-48
2021/01/01 02:38:46;;;;;;;;;;;;;;;;;;5067914;28;6928;-54
2021/01/01 02:41:11;;;;;;;;;;;;;;;;;;5067768;28;13218;-50
2021/01/01 02:43:36;;;;;;;;;;;;;;;;;;5045483;28;9356;-49
2021/01/01 02:46:02;;;;;;;;;;;;;;;;;;5045469;28;9507;-53
2021/01/01 02:48:27;;;;;;;;;;;;;;;;;;5045011;28;9355;-53
2021/01/01 02:50:52;;;;;;;;;;;;;;;;;;5048377;28;4205;-53
2021/01/01 02:53:18;;;;;;;;;;;;;;;;;;5047208;28;8010;-50
2021/01/01 02:55:43;;;;;;;;;;;;;;;;;;5047041;28;13975;-53
2021/01/01 02:58:09;;;;;;;;;;;;;;;;;;5045551;28;14769;-49
2021/01/01 03:00:35;;;;;;;;;;;;;;;;;;5050255;28;13171;-51
2021/01/01 03:03:00;;;;;;;;;;;;;;;;;;5048022;28;4153;-49
2021/01/01 03:05:25;;;;;;;;;;;;;;;;;;5040996;28;14585;-49
2021/01/01 03:07:51;;;;;;;;;;;;;;;;;;5043836;28;6739;-49
2021/01/01 03:10:16;;;;;;;;;;;;;;;;;;5049900;28;8305;-50
2021/01/01 03:12:41;;;;;;;;;;;;;;;;;;5054123;28;13675;-51
2021/01/01 03:15:07;;;;;;;;;;;;;;;;;;5056439;28;4389;-51
2021/01/01 03:17:33;;;;;;;;;;;;;;;;;;5050030;28;9342;-50
2021/01/01 03:19:58;;;;;;;;;;;;;;;;;;5048968;28;11337;-49
2021/01/01 03:22:23;;;;;;;;;;;;;;;;;;5050701;28;14288;-49
2021/01/01 03:24:48;;;;;;;;;;;;;;;;;;5056867;28;10820;-52
2021/01/01 03:27:14;;;;;;;;;;;;;;;;;;5044169;28;7544;-49
2021/01/01 03:29:39;;;;;;;;;;;;;;;;;;5048280;28;6909;-52
2021/01/01 03:32:04;;;;;;;;;;;;;;;;;;5046134;28;11380;-53
2021/01/01 03:34:30;;;;;;;;;;;;;;;;;;5049510;28;9393;-49
2021/01/01 03:36:55;;;;;;;;;;;;;;;;;;5044967;28;11220;-49
2021/01/01 03:39:20;;;;;;;;;;;;;;;;;;5049715;28;8125;-48
2021/01/01 03:41:46;;;;;;;;;;;;;;;;;;5050644;28;6996;-50
2021/01/01 03:44:11;;;;;;;;;;;;;;;;;;5052520;28;14865;-51
2021/01/01 03:46:36;;;;;;;;;;;;;;;;;;5053730;28;14281;-49
2021/01/01 03:49:01;;;;;;;;;;;;;;;;;;5052773;28;8365;-50
2021/01/01 03:51:27;;;;;;;;;;;;;;;;;;5051628;28;9430;-50
2021/01/01 03:53:52;;;;;;;;;;;;;;;;;;5055937;28;4211;-49
2021/01/01 03:56:17;;;;;;;;;;;;;;;;;;5056966;28;15127;-49
2021/01/01 03:58:43;;;;;;;;;;;;;;;;;;5053798;28;9586;-51
2021/01/01 04:01:08;;;;;;;;;;;;;;;;;;5047165;28;12759;-51
2021/01/01 04:03:33;;;;;;;;;;;;;;;;;;5054534;28;12216;-51
2021/01/01 04:05:58;;;;;;;;;;;;;;;;;;5053904;28;4342;-48
2021/01/01 04:08:24;;;;;;;;;;;;;;;;;;5053792;28;9474;-50
2021/01/01 04:10:49;;;;;;;;;;;;;;;;;;5053828;28;15685;-50
2021/01/01 04:13:14;;;;;;;;;;;;;;;;;;5038561;28;11057;-50
2021/01/01 04:15:40;;;;;;;;;;;;;;;;;;5050518;28;14353;-51
2021/01/01 04:18:05;;;;;;;;;;;;;;;;;;5058590;28;4171;-51
2021/01/01 04:20:31;;;;;;;;;;;;;;;;;;5052179;28;9457;-50
2021/01/01 04:22:56;;;;;;;;;;;;;;;;;;5052435;28;14570;-51
2021/01/01 04:25:21;;;;;;;;;;;;;;;;;;5053605;28;6703;-49
2021/01/01 04:27:46;;;;;;;;;;;;;;;;;;5053204;28;14541;-49
2021/01/01 04:30:12;;;;;;;;;;;;;;;;;;5037238;28;4144;-50
2021/01/01 04:32:37;;;;;;;;;;;;;;;;;;5054140;28;8575;-50
2021/01/01 04:35:03;;;;;;;;;;;;;;;;;;5054855;28;12482;-49
2021/01/01 04:37:28;;;;;;;;;;;;;;;;;;5050290;28;12600;-51
2021/01/01 04:39:53;;;;;;;;;;;;;;;;;;5036684;28;12428;-50
2021/01/01 04:42:18;;;;;;;;;;;;;;;;;;5048802;28;13868;-52
2021/01/01 04:44:44;;;;;;;;;;;;;;;;;;5060251;28;7431;-50
2021/01/01 04:47:10;;;;;;;;;;;;;;;;;;5063595;28;12791;-51
2021/01/01 04:49:36;;;;;;;;;;;;;;;;;;5060069;28;8797;-49
2021/01/01 04:52:02;;;;;;;;;;;;;;;;;;5068785;28;14285;-49
2021/01/01 04:54:32;;;;;;;;;;;;;;;;;;5059409;28;15654;-51
2021/01/01 04:56:57;;;;;;;;;;;;;;;;;;5068278;28;4182;-48
2021/01/01 04:59:22;;;;;;;;;;;;;;;;;;5067906;28;13917;-52
2021/01/01 05:01:48;;;;;;;;;;;;;;;;;;5068260;28;15072;-50
2021/01/01 05:04:13;;;;;;;;;;;;;;;;;;5068782;28;9373;-52
2021/01/01 05:06:39;;;;;;;;;;;;;;;;;;5060436;28;15370;-50
2021/01/01 05:09:05;;;;;;;;;;;;;;;;;;5071193;28;4877;-51
2021/01/01 05:11:30;;;;;;;;;;;;;;;;;;5068629;28;15557;-50
2021/01/01 05:13:56;;;;;;;;;;;;;;;;;;5072985;28;8626;-50
2021/01/01 05:16:21;;;;;;;;;;;;;;;;;;5067844;28;9765;-52
2021/01/01 05:18:47;;;;;;;;;;;;;;;;;;5067951;28;13106;-48
2021/01/01 05:21:20;;;;;;;;;;;;;;;;;;5052758;28;5872;-49
2021/01/01 05:23:48;;;;;;;;;;;;;;;;;;5069947;28;6929;-50
2021/01/01 05:26:14;;;;;;;;;;;;;;;;;;5061144;28;9496;-51
2021/01/01 05:28:48;;;;;;;;;;;;;;;;;;5067870;28;9470;-51
2021/01/01 05:31:14;;;;;;;;;;;;;;;;;;5064623;28;15562;-51
2021/01/01 05:33:41;;;;;;;;;;;;;;;;;;5068010;28;13306;-50
2021/01/01 05:36:07;;;;;;;;;;;;;;;;;;5068868;28;4234;-49
2021/01/01 05:38:35;;;;;;;;;;;;;;;;;;5062566;28;14677;-50
2021/01/01 05:41:01;;;;;;;;;;;;;;;;;;5065286;28;16210;-51
2021/01/01 05:43:26;;;;;;;;;;;;;;;;;;5066490;28;16751;-49
2021/01/01 05:45:51;;;;;;;;;;;;;;;;;;5071435;28;8689;-51
2021/01/01 05:48:17;;;;;;;;;;;;;;;;;;5067885;28;8903;-49
2021/01/01 05:50:44;;;;;;;;;;;;;;;;;;5069355;28;8723;-49
2021/01/01 05:53:13;;;;;;;;;;;;;;;;;;5051721;28;14057;-49
2021/01/01 05:55:39;;;;;;;;;;;;;;;;;;5065996;28;13027;-51
2021/01/01 05:58:17;;;;;;;;;;;;;;;;;;5064825;28;16275;-49
2021/01/01 06:00:42;;;;;;;;;;;;;;;;;;5061446;28;11492;-49
2021/01/01 06:03:07;;;;;;;;;;;;;;;;;;5060520;28;4221;-50
2021/01/01 06:05:33;;;;;;;;;;;;;;;;;;5063037;28;14381;-50
2021/01/01 06:07:59;;;;;;;;;;;;;;;;;;5062004;28;15435;-49
2021/01/01 06:10:26;;;;;;;;;;;;;;;;;;5067343;28;12337;-51
2021/01/01 06:12:53;;;;;;;;;;;;;;;;;;5066421;28;13197;-50
2021/01/01 06:15:22;;;;;;;;;;;;;;;;;;5063945;28;9370;-49
2021/01/01 06:17:51;;;;;;;;;;;;;;;;;;5066528;28;6933;-49
2021/01/01 06:20:20;;;;;;;;;;;;;;;;;;5063058;28;14332;-48
2021/01/01 06:22:51;;;;;;;;;;;;;;;;;;5061442;28;14201;-52
2021/01/01 06:25:17;;;;;;;;;;;;;;;;;;5058077;28;13544;-48
2021/01/01 06:27:42;;;;;;;;;;;;;;;;;;5065362;28;7338;-49
2021/01/01 06:30:09;;;;;;;;;;;;;;;;;;5066401;28;4232;-50
2021/01/01 06:32:34;;;;;;;;;;;;;;;;;;5066799;28;13532;-50
2021/01/01 06:35:21;;;;;;;;;;;;;;;;;;5062508;28;7687;-51
2021/01/01 06:37:47;;;;;;;;;;;;;;;;;;5059195;28;14133;-49
2021/01/01 06:40:22;;;;;;;;;;;;;;;;;;5059554;28;10195;-49
2021/01/01 06:43:00;;;;;;;;;;;;;;;;;;5064834;28;12211;-49
2021/01/01 06:45:45;;;;;;;;;;;;;;;;;;5060621;28;9928;-51
2021/01/01 06:48:22;;;;;;;;;;;;;;;;;;5067121;28;4184;-50
2021/01/01 06:50:51;;;;;;;;;;;;;;;;;;5067133;28;10151;-49
2021/01/01 06:53:18;;;;;;;;;;;;;;;;;;5065416;28;13811;-53
2021/01/01 06:55:45;;;;;;;;;;;;;;;;;;5066691;28;10261;-50
2021/01/01 06:58:10;;;;;;;;;;;;;;;;;;5064328;28;9855;-51
2021/01/01 07:00:45;;;;;;;;;;;;;;;;;;5066237;28;13158;-51
2021/01/01 07:03:25;;;;;;;;;;;;;;;;;;5064675;28;4129;-50
2021/01/01 07:05:50;;;;;;;;;;;;;;;;;;5066623;28;7215;-49
2021/01/01 07:08:34;;;;;;;;;;;;;;;;;;5054396;28;13774;-49
2021/01/01 07:10:59;;;;;;;;;;;;;;;;;;5060728;28;15361;-51
2021/01/01 07:13:38;;;;;;;;;;;;;;;;;;5064507;28;13509;-50
2021/01/01 07:16:04;;;;;;;;;;;;;;;;;;5053566;28;16706;-52
2021/01/01 07:18:29;;;;;;;;;;;;;;;;;;5066041;28;8869;-50
2021/01/01 07:20:58;;;;;;;;;;;;;;;;;;5067201;28;4190;-51
2021/01/01 07:23:24;;;;;;;;;;;;;;;;;;5066251;28;13942;-52
2021/01/01 07:25:49;;;;;;;;;;;;;;;;;;5066741;28;13448;-50
2021/01/01 07:28:16;;;;;;;;;;;;;;;;;;5046393;28;12419;-52
2021/01/01 07:30:41;;;;;;;;;;;;;;;;;;5048298;28;13064;-50
2021/01/01 07:33:06;;;;;;;;;;;;;;;;;;5059829;28;4221;-49
2021/01/01 07:35:32;;;;;;;;;;;;;;;;;;5063121;28;8262;-51
2021/01/01 07:37:58;;;;;;;;;;;;;;;;;;5061003;28;12821;-49
2021/01/01 07:40:24;;;;;;;;;;;;;;;;;;5064832;28;7316;-49
2021/01/01 07:42:50;;;;;;;;;;;;;;;;;;5066097;28;9471;-52
2021/01/01 07:45:15;;;;;;;;;;;;;;;;;;5057531;28;15320;-51
2021/01/01 07:47:44;;;;;;;;;;;;;;;;;;5062210;28;8329;-49
2021/01/01 07:50:13;;;;;;;;;;;;;;;;;;5067469;28;9498;-49
2021/01/01 07:52:38;;;;;;;;;;;;;;;;;;5069516;28;14579;-50
2021/01/01 07:55:03;;;;;;;;;;;;;;;;;;5069183;28;9216;-49
2021/01/01 07:57:29;;;;;;;;;;;;;;;;;;5060644;28;14657;-50
2021/01/01 07:59:58;;;;;;;;;;;;;;;;;;5069160;28;9698;-50
2021/01/01 08:02:24;;;;;;;;;;;;;;;;;;5069436;28;14565;-51
2021/01/01 08:04:50;;;;;;;;;;;;;;;;;;5069374;28;10895;-49
2021/01/01 08:07:22;;;;;;;;;;;;;;;;;;5069330;28;15310;-49
2021/01/01 08:09:47;;;;;;;;;;;;;;;;;;5062225;28;10654;-50
2021/01/01 08:12:13;;;;;;;;;;;;;;;;;;5063095;28;4125;-49
2021/01/01 08:14:46;;;;;;;;;;;;;;;;;;5069378;28;6703;-50
2021/01/01 08:17:22;;;;;;;;;;;;;;;;;;5068449;28;15102;-52
2021/01/01 08:19:47;;;;;;;;;;;;;;;;;;5064149;28;6818;-51
2021/01/01 08:22:13;;;;;;;;;;;;;;;;;;5070375;28;12976;-50
2021/01/01 08:24:41;;;;;;;;;;;;;;;;;;5066083;28;9417;-52
2021/01/01 08:27:06;;;;;;;;;;;;;;;;;;5062024;28;4149;-51
2021/01/01 08:29:33;;;;;;;;;;;;;;;;;;5060917;28;14316;-52
2021/01/01 08:31:59;;;;;;;;;;;;;;;;;;5068301;28;12794;-50
2021/01/01 08:34:24;;;;;;;;;;;;;;;;;;5067961;28;12896;-50
2021/01/01 08:36:49;;;;;;;;;;;;;;;;;;5057625;28;15823;-50
2021/01/01 08:39:15;;;;;;;;;;;;;;;;;;5046553;28;3947;-49
2021/01/01 08:41:41;;;;;;;;;;;;;;;;;;5069248;28;9808;-52
2021/01/01 08:44:10;;;;;;;;;;;;;;;;;;5057594;28;16434;-49
2021/01/01 08:46:36;;;;;;;;;;;;;;;;;;5048072;28;13836;-49
2021/01/01 08:49:15;;;;;;;;;;;;;;;;;;5048205;28;14263;-49
2021/01/01 08:51:41;;;;;;;;;;;;;;;;;;5048317;28;13195;-48
2021/01/01 08:54:06;;;;;;;;;;;;;;;;;;5054117;28;4209;-51
2021/01/01 08:56:32;;;;;;;;;;;;;;;;;;5049320;28;12756;-51
2021/01/01 08:59:07;;;;;;;;;;;;;;;;;;5048129;28;14926;-50
2021/01/01 09:01:32;;;;;;;;;;;;;;;;;;5043080;28;13922;-50
2021/01/01 09:04:03;;;;;;;;;;;;;;;;;;5062409;28;7903;-50
2021/01/01 09:06:29;;;;;;;;;;;;;;;;;;5039422;28;14063;-49
2021/01/01 09:09:07;;;;;;;;;;;;;;;;;;5045090;28;9172;-52
2021/01/01 09:11:33;;;;;;;;;;;;;;;;;;5047983;28;17511;-50
2021/01/01 09:14:03;;;;;;;;;;;;;;;;;;5048545;28;13932;-51
2021/01/01 09:16:28;;;;;;;;;;;;;;;;;;5057314;28;7286;-51
2021/01/01 09:18:54;;;;;;;;;;;;;;;;;;5054047;28;12694;-50
2021/01/01 09:21:19;;;;;;;;;;;;;;;;;;5048750;28;9174;-50
2021/01/01 09:23:51;;;;;;;;;;;;;;;;;;5045587;28;8755;-49
2021/01/01 09:26:23;;;;;;;;;;;;;;;;;;5044528;28;16258;-49
2021/01/01 09:28:59;;;;;;;;;;;;;;;;;;5047539;28;9372;-49
2021/01/01 09:31:24;;;;;;;;;;;;;;;;;;5044939;28;12411;-50
2021/01/01 09:33:58;;;;;;;;;;;;;;;;;;5029809;28;17193;-51
2021/01/01 09:36:24;;;;;;;;;;;;;;;;;;5038477;28;9540;-50
2021/01/01 09:38:49;;;;;;;;;;;;;;;;;;5049301;28;6973;-53
2021/01/01 09:41:16;;;;;;;;;;;;;;;;;;5047835;28;7990;-49
2021/01/01 09:43:41;;;;;;;;;;;;;;;;;;5047863;28;14479;-50
2021/01/01 09:46:07;;;;;;;;;;;;;;;;;;5047908;28;14693;-51
2021/01/01 09:48:32;;;;;;;;;;;;;;;;;;5047522;28;11476;-49
2021/01/01 09:50:57;;;;;;;;;;;;;;;;;;5049696;28;3875;-50
2021/01/01 09:53:22;;;;;;;;;;;;;;;;;;5047617;28;13008;-52
2021/01/01 09:55:49;;;;;;;;;;;;;;;;;;5048728;28;10519;-52
2021/01/01 09:58:15;;;;;;;;;;;;;;;;;;5047799;28;9332;-52
2021/01/01 10:00:40;;;;;;;;;;;;;;;;;;5036540;28;14555;-49
2021/01/01 10:03:05;;;;;;;;;;;;;;;;;;5050851;28;1174;-48
2021/01/01 10:05:30;;;;;;;;;;;;;;;;;;5048219;28;13624;-48
2021/01/01 10:07:56;;;;;;;;;;;;;;;;;;5047104;28;7478;-51
2021/01/01 10:10:21;;;;;;;;;;;;;;;;;;5047981;28;12288;-50
2021/01/01 10:12:46;;;;;;;;;;;;;;;;;;5047229;28;10134;-52
2021/01/01 10:15:12;;;;;;;;;;;;;;;;;;5048873;28;4179;-50
2021/01/01 10:17:37;;;;;;;;;;;;;;;;;;5046704;28;12237;-49
2021/01/01 10:20:03;;;;;;;;;;;;;;;;;;5044696;28;6943;-51
2021/01/01 10:22:28;;;;;;;;;;;;;;;;;;5045475;28;11261;-49
2021/01/01 10:24:53;;;;;;;;;;;;;;;;;;5047713;28;12806;-49
2021/01/01 10:27:19;;;;;;;;;;;;;;;;;;5050967;28;12756;-51
2021/01/01 10:29:44;;;;;;;;;;;;;;;;;;5047527;28;7577;-51
2021/01/01 10:32:12;;;;;;;;;;;;;;;;;;5046182;28;9595;-53
2021/01/01 10:34:43;;;;;;;;;;;;;;;;;;5048156;28;9349;-50
2021/01/01 10:37:12;;;;;;;;;;;;;;;;;;5046351;28;14662;-49
2021/01/01 10:39:38;;;;;;;;;;;;;;;;;;5046090;28;9831;-52
2021/01/01 10:42:03;;;;;;;;;;;;;;;;;;5048743;28;4157;-52
2021/01/01 10:44:30;;;;;;;;;;;;;;;;;;5060213;28;14687;-50
2021/01/01 10:46:56;;;;;;;;;;;;;;;;;;5067636;28;9005;-49
2021/01/01 10:49:25;;;;;;;;;;;;;;;;;;5066440;28;9510;-52
2021/01/01 10:51:50;;;;;;;;;;;;;;;;;;5066408;28;13469;-52
2021/01/01 10:54:19;;;;;;;;;;;;;;;;;;5066296;28;4216;-49
2021/01/01 10:56:45;;;;;;;;;;;;;;;;;;5061772;28;9154;-52
2021/01/01 10:59:10;;;;;;;;;;;;;;;;;;5059408;28;13925;-51
2021/01/01 11:01:35;;;;;;;;;;;;;;;;;;5066257;28;7487;-51
2021/01/01 11:04:01;;;;;;;;;;;;;;;;;;5066656;28;12336;-51
2021/01/01 11:06:26;;;;;;;;;;;;;;;;;;5067456;28;12154;-53
2021/01/01 11:08:51;;;;;;;;;;;;;;;;;;5068275;28;7154;-49
2021/01/01 11:11:21;;;;;;;;;;;;;;;;;;5066375;28;13300;-51
2021/01/01 11:14:11;;;;;;;;;;;;;;;;;;5066483;28;13985;-48
2021/01/01 12:23:30;;;;;;;;;;;;;;;;;;4989320;28;8145;-49
2021/01/01 12:25:55;;;;;;;;;;;;;;;;;;4988934;28;9523;-50
2021/01/01 12:28:25;;;;;;;;;;;;;;;;;;4986798;28;12253;-49
2021/01/01 12:30:56;;;;;;;;;;;;;;;;;;4987591;28;9662;-49
2021/01/01 12:33:21;;;;;;;;;;;;;;;;;;4988620;28;6140;-49
2021/01/01 12:35:47;;;;;;;;;;;;;;;;;;4986744;28;7089;-52
2021/01/01 12:38:18;;;;;;;;;;;;;;;;;;4984742;28;16943;-48
2021/01/01 12:40:46;;;;;;;;;;;;;;;;;;4986606;28;15620;-49
2021/01/01 12:43:12;;;;;;;;;;;;;;;;;;4982682;28;12634;-49
2021/01/01 12:45:37;;;;;;;;;;;;;;;;;;4987138;28;7618;-49
2021/01/01 12:48:06;;;;;;;;;;;;;;;;;;5010266;28;4221;-51
2021/01/01 12:50:31;;;;;;;;;;;;;;;;;;5066358;28;9365;-51
2021/01/01 12:52:57;;;;;;;;;;;;;;;;;;5063014;28;10137;-49
2021/01/01 12:55:23;;;;;;;;;;;;;;;;;;5068748;28;9110;-48
2021/01/01 12:57:49;;;;;;;;;;;;;;;;;;5061928;28;14846;-51
2021/01/01 13:00:15;;;;;;;;;;;;;;;;;;5070786;28;4283;-52
2021/01/01 13:02:40;;;;;;;;;;;;;;;;;;5067956;28;14095;-53
2021/01/01 13:05:06;;;;;;;;;;;;;;;;;;5067960;28;15969;-52
2021/01/01 13:07:31;;;;;;;;;;;;;;;;;;5058391;28;15560;-51
2021/01/01 13:09:59;;;;;;;;;;;;;;;;;;5059682;28;14499;-53
2021/01/01 13:12:25;;;;;;;;;;;;;;;;;;5059552;28;6420;-52
2021/01/01 13:14:50;;;;;;;;;;;;;;;;;;5063193;28;8229;-50
2021/01/01 13:17:15;;;;;;;;;;;;;;;;;;5063626;28;8567;-52
2021/01/01 13:19:41;;;;;;;;;;;;;;;;;;5075205;28;12028;-52
2021/01/01 13:22:06;;;;;;;;;;;;;;;;;;5067881;28;9353;-50
2021/01/01 13:24:31;;;;;;;;;;;;;;;;;;5069224;28;8280;-50
2021/01/01 13:26:56;;;;;;;;;;;;;;;;;;5069706;28;9755;-49
2021/01/01 13:29:22;;;;;;;;;;;;;;;;;;5066796;28;8883;-49
2021/01/01 13:31:47;;;;;;;;;;;;;;;;;;5067878;28;12746;-52
2021/01/01 13:34:12;;;;;;;;;;;;;;;;;;5058752;28;6980;-52
2021/01/01 13:36:38;;;;;;;;;;;;;;;;;;5074930;28;8611;-49
2021/01/01 13:39:04;;;;;;;;;;;;;;;;;;5065895;28;4134;-51
2021/01/01 13:41:30;;;;;;;;;;;;;;;;;;5060610;28;11359;-50
2021/01/01 13:43:56;;;;;;;;;;;;;;;;;;5066739;28;9703;-52
2021/01/01 13:46:26;;;;;;;;;;;;;;;;;;5065503;28;9468;-51
2021/01/01 13:48:52;;;;;;;;;;;;;;;;;;5050170;28;9765;-51
2021/01/01 13:51:24;;;;;;;;;;;;;;;;;;5064986;28;4203;-51
2021/01/01 13:53:50;;;;;;;;;;;;;;;;;;5061943;28;6948;-50
2021/01/01 13:56:15;;;;;;;;;;;;;;;;;;5062811;28;12353;-53
2021/01/01 13:58:40;;;;;;;;;;;;;;;;;;5067724;28;12752;-49
2021/01/01 14:01:05;;;;;;;;;;;;;;;;;;5067904;28;12179;-48
2021/01/01 14:03:31;;;;;;;;;;;;;;;;;;5064593;28;10356;-53
2021/01/01 14:05:56;;;;;;;;;;;;;;;;;;5068446;28;4018;-51
2021/01/01 14:08:21;;;;;;;;;;;;;;;;;;5066823;28;13551;-52
2021/01/01 14:10:47;;;;;;;;;;;;;;;;;;5063774;28;14418;-50
2021/01/01 14:13:13;;;;;;;;;;;;;;;;;;5067883;28;16572;-53
2021/01/01 14:15:38;;;;;;;;;;;;;;;;;;5067144;28;11696;-51
2021/01/01 14:18:04;;;;;;;;;;;;;;;;;;5067373;28;3831;-49
2021/01/01 14:20:29;;;;;;;;;;;;;;;;;;5066279;28;15020;-51
2021/01/01 14:22:54;;;;;;;;;;;;;;;;;;5067151;28;9364;-51
2021/01/01 14:25:20;;;;;;;;;;;;;;;;;;5065425;28;14659;-51
2021/01/01 14:27:45;;;;;;;;;;;;;;;;;;5066648;28;9285;-48
2021/01/01 14:30:11;;;;;;;;;;;;;;;;;;5062363;28;4194;-52
2021/01/01 14:32:36;;;;;;;;;;;;;;;;;;5064075;28;13863;-51
2021/01/01 14:35:03;;;;;;;;;;;;;;;;;;5066109;28;15456;-52
2021/01/01 14:37:28;;;;;;;;;;;;;;;;;;5048328;28;12826;-49
2021/01/01 14:39:53;;;;;;;;;;;;;;;;;;5065989;28;14060;-52
2021/01/01 14:42:19;;;;;;;;;;;;;;;;;;5055207;28;4140;-49
2021/01/01 14:44:44;;;;;;;;;;;;;;;;;;5065530;28;9337;-51
2021/01/01 14:47:09;;;;;;;;;;;;;;;;;;5066948;28;16196;-51
2021/01/01 14:49:35;;;;;;;;;;;;;;;;;;5064835;28;6615;-50
2021/01/01 14:52:00;;;;;;;;;;;;;;;;;;5062810;28;9405;-54
2021/01/01 14:54:28;;;;;;;;;;;;;;;;;;5063733;28;13321;-50
2021/01/01 14:56:53;;;;;;;;;;;;;;;;;;5066440;28;8450;-52
2021/01/01 14:59:18;;;;;;;;;;;;;;;;;;5069192;28;16955;-51
2021/01/01 15:01:44;;;;;;;;;;;;;;;;;;5070879;28;13482;-49
2021/01/01 15:04:09;;;;;;;;;;;;;;;;;;5069145;28;13986;-51
2021/01/01 15:06:34;;;;;;;;;;;;;;;;;;5077956;28;12395;-52
2021/01/01 15:09:00;;;;;;;;;;;;;;;;;;5073609;28;8339;-51
2021/01/01 15:11:25;;;;;;;;;;;;;;;;;;5067391;28;13388;-51
2021/01/01 15:13:51;;;;;;;;;;;;;;;;;;5062703;28;16384;-49
2021/01/01 15:16:16;;;;;;;;;;;;;;;;;;5070853;28;11074;-51
2021/01/01 15:18:42;;;;;;;;;;;;;;;;;;5070294;28;15435;-51
2021/01/01 15:21:08;;;;;;;;;;;;;;;;;;5072757;28;4175;-50
2021/01/01 15:23:33;;;;;;;;;;;;;;;;;;5070197;28;15959;-49
2021/01/01 15:25:59;;;;;;;;;;;;;;;;;;5069335;28;10865;-53
2021/01/01 15:28:24;;;;;;;;;;;;;;;;;;5065292;28;14199;-52
2021/01/01 15:30:49;;;;;;;;;;;;;;;;;;5068964;28;16073;-51
2021/01/01 15:33:14;;;;;;;;;;;;;;;;;;5071035;28;4291;-48
2021/01/01 15:35:40;;;;;;;;;;;;;;;;;;5068502;28;14116;-50
2021/01/01 15:38:05;;;;;;;;;;;;;;;;;;5069209;28;10391;-50
2021/01/01 15:40:30;;;;;;;;;;;;;;;;;;5069761;28;10931;-49
2021/01/01 15:42:56;;;;;;;;;;;;;;;;;;5068559;28;17414;-51
2021/01/01 15:45:21;;;;;;;;;;;;;;;;;;5072655;28;4209;-49
2021/01/01 15:47:46;;;;;;;;;;;;;;;;;;5068355;28;12324;-50
2021/01/01 15:50:12;;;;;;;;;;;;;;;;;;5068708;28;15465;-51
2021/01/01 15:52:37;;;;;;;;;;;;;;;;;;5068404;28;6913;-52
2021/01/01 15:55:03;;;;;;;;;;;;;;;;;;5069194;28;11213;-50
2021/01/01 15:57:28;;;;;;;;;;;;;;;;;;5069523;28;9761;-52
2021/01/01 15:59:53;;;;;;;;;;;;;;;;;;5067023;28;9835;-49
2021/01/01 16:02:19;;;;;;;;;;;;;;;;;;5066335;28;9509;-50
2021/01/01 16:04:44;;;;;;;;;;;;;;;;;;5060518;28;15692;-54
2021/01/01 16:07:11;;;;;;;;;;;;;;;;;;5068923;28;12973;-53
2021/01/01 16:09:36;;;;;;;;;;;;;;;;;;5068973;28;9331;-50
2021/01/01 16:12:01;;;;;;;;;;;;;;;;;;5070549;28;7045;-52
2021/01/01 16:14:27;;;;;;;;;;;;;;;;;;5066513;28;10270;-49
2021/01/01 16:16:52;;;;;;;;;;;;;;;;;;5061073;28;9614;-51
2021/01/01 16:19:17;;;;;;;;;;;;;;;;;;5039156;28;8644;-49
2021/01/01 16:21:43;;;;;;;;;;;;;;;;;;5052321;28;16319;-52
2021/01/01 16:24:09;;;;;;;;;;;;;;;;;;5070549;28;4160;-50
2021/01/01 16:26:45;;;;;;;;;;;;;;;;;;5068697;28;11524;-51
2021/01/01 16:29:11;;;;;;;;;;;;;;;;;;5068560;28;9169;-51
2021/01/01 16:31:40;;;;;;;;;;;;;;;;;;5064568;28;10194;-52
2021/01/01 16:34:06;;;;;;;;;;;;;;;;;;5067656;28;14151;-50
2021/01/01 16:36:32;;;;;;;;;;;;;;;;;;5069403;28;14595;-49
2021/01/01 16:38:57;;;;;;;;;;;;;;;;;;5065700;28;7577;-51
2021/01/01 16:41:33;;;;;;;;;;;;;;;;;;5068763;28;14279;-49
2021/01/01 16:43:58;;;;;;;;;;;;;;;;;;5061746;28;10161;-50
2021/01/01 16:46:24;;;;;;;;;;;;;;;;;;5068324;28;12897;-51
2021/01/01 16:48:49;;;;;;;;;;;;;;;;;;5063586;28;15303;-50
2021/01/01 16:51:14;;;;;;;;;;;;;;;;;;5069932;28;4193;-49
2021/01/01 16:53:40;;;;;;;;;;;;;;;;;;5069289;28;16513;-52
2021/01/01 16:56:08;;;;;;;;;;;;;;;;;;5074296;28;9295;-52
2021/01/01 16:58:35;;;;;;;;;;;;;;;;;;5061255;28;7189;-51
2021/01/01 17:01:00;;;;;;;;;;;;;;;;;;5067859;28;15899;-53
2021/01/01 17:03:25;;;;;;;;;;;;;;;;;;5061819;28;6365;-50
2021/01/01 17:05:51;;;;;;;;;;;;;;;;;;5069261;28;9262;-50
2021/01/01 17:08:16;;;;;;;;;;;;;;;;;;5067372;28;14473;-53
2021/01/01 17:10:41;;;;;;;;;;;;;;;;;;5069691;28;10945;-50
2021/01/01 17:13:06;;;;;;;;;;;;;;;;;;5068384;28;13567;-49
2021/01/01 17:15:31;;;;;;;;;;;;;;;;;;5067247;28;15943;-49
2021/01/01 17:17:57;;;;;;;;;;;;;;;;;;5068618;28;7043;-51
2021/01/01 17:20:22;;;;;;;;;;;;;;;;;;5065332;28;9709;-50
2021/01/01 17:22:47;;;;;;;;;;;;;;;;;;5057996;28;10519;-51
2021/01/01 17:25:13;;;;;;;;;;;;;;;;;;5070466;28;13055;-49
2021/01/01 17:27:38;;;;;;;;;;;;;;;;;;5065280;28;13512;-50
2021/01/01 17:30:04;;;;;;;;;;;;;;;;;;5067991;28;7073;-52
2021/01/01 17:32:29;;;;;;;;;;;;;;;;;;5067438;28;9592;-48
2021/01/01 17:34:54;;;;;;;;;;;;;;;;;;5068328;28;13112;-53
2021/01/01 17:37:20;;;;;;;;;;;;;;;;;;5066575;28;13855;-49
2021/01/01 17:39:49;;;;;;;;;;;;;;;;;;5067280;28;14130;-52
2021/01/01 17:42:14;;;;;;;;;;;;;;;;;;5068883;28;4011;-51
2021/01/01 17:44:39;;;;;;;;;;;;;;;;;;5066551;28;14662;-52
2021/01/01 17:47:05;;;;;;;;;;;;;;;;;;5066855;28;14946;-52
2021/01/01 17:49:30;;;;;;;;;;;;;;;;;;5067272;28;14327;-50
2021/01/01 17:51:55;;;;;;;;;;;;;;;;;;5068310;28;9303;-54
2021/01/01 17:54:20;;;;;;;;;;;;;;;;;;5069015;28;4228;-53